createdAt,value
2019-02-21T00:23:21.337Z,67.80
2019-02-21T01:50:32.185Z,71.90
2019-02-21T02:11:33.385Z,72.50
2019-02-21T05:30:09.968Z,72.90
2019-02-21T05:43:33.632Z,72.80
2019-02-21T05:46:41.198Z,72.80
2019-02-21T06:21:11.376Z,73.80
2019-02-21T06:24:18.895Z,73.90
2019-02-21T07:59:39.595Z,75.70
2019-02-21T08:02:09.775Z,75.70
2019-02-21T08:04:58.542Z,76.30
2019-02-21T08:07:39.610Z,75.60
2019-02-21T08:10:09.707Z,75.60
2019-02-21T08:23:29.198Z,75.60
2019-02-21T08:25:58.991Z,75.70
2019-02-21T08:28:48.088Z,75.80
2019-02-21T08:44:43.192Z,75.70
2019-02-21T08:47:24.339Z,75.70
2019-02-21T08:50:04.225Z,75.70
2019-02-21T08:52:52.924Z,75.70
2019-02-21T08:55:34.314Z,75.70
2019-02-21T08:58:15.668Z,75.00
2019-02-21T09:00:58.118Z,75.60
2019-02-21T10:09:38.209Z,75.50
2019-02-21T10:12:27.077Z,75.40
2019-02-21T10:15:08.801Z,75.40
2019-02-21T10:38:48.726Z,75.40
2019-02-21T10:41:37.565Z,75.50
2019-02-21T10:44:17.579Z,75.50
2019-02-21T10:47:06.333Z,75.50
2019-02-21T10:49:47.238Z,75.50
2019-02-21T10:52:35.958Z,75.40
2019-02-21T10:55:17.200Z,75.50
2019-02-21T11:29:32.496Z,75.80
2019-02-21T11:32:21.297Z,75.90
2019-02-21T11:35:06.139Z,75.90
2019-02-21T12:57:13.284Z,76.70
2019-02-21T13:37:03.448Z,77.30
2019-02-21T13:39:35.644Z,77.40
2019-02-21T13:42:24.777Z,77.40
2019-02-21T13:45:08.101Z,77.40
2019-02-21T13:48:31.961Z,77.30
2019-02-21T13:51:02.144Z,77.50
2019-02-21T14:05:03.981Z,77.60
2019-02-21T14:26:36.840Z,77.80
2019-02-21T14:34:41.809Z,77.80
2019-02-21T14:43:41.873Z,78.10
2019-02-21T14:48:45.813Z,78.20
2019-02-21T14:55:08.567Z,78.30
2019-02-21T15:16:15.304Z,78.10
2019-02-21T15:19:04.163Z,78.10
2019-02-21T15:21:46.653Z,78.10
2019-02-21T16:33:05.953Z,78.80
2019-02-21T16:35:54.802Z,78.90
2019-02-21T16:38:35.840Z,78.80
2019-02-21T17:13:03.801Z,79.20
2019-02-21T17:26:08.790Z,79.40
2019-02-21T17:28:57.609Z,79.50
2019-02-21T17:31:39.066Z,79.40
2019-02-21T17:34:09.107Z,79.50
2019-02-21T17:36:57.881Z,79.50
2019-02-21T17:39:38.712Z,79.60
2019-02-21T17:42:27.453Z,79.60
2019-02-21T17:45:07.483Z,79.60
2019-02-21T17:47:56.367Z,79.70
2019-02-21T17:50:37.667Z,79.60
2019-02-21T18:09:00.207Z,79.80
2019-02-21T18:11:30.193Z,79.90
2019-02-21T18:14:19.084Z,79.90
2019-02-21T18:17:00.519Z,79.90
2019-02-21T18:24:59.332Z,79.60
2019-02-21T18:38:14.450Z,79.60
2019-02-21T18:40:55.644Z,79.70
2019-02-21T18:43:35.345Z,79.70
2019-02-21T18:46:24.099Z,79.80
2019-02-21T18:49:05.073Z,79.80
2019-02-21T18:51:45.977Z,79.80
2019-02-21T18:54:27.303Z,79.80
2019-02-21T18:57:07.098Z,79.80
2019-02-21T18:59:55.842Z,79.80
2019-02-21T19:02:37.212Z,79.80
2019-02-21T19:05:18.615Z,79.90
2019-02-21T19:08:04.960Z,79.80
2019-02-21T19:10:48.727Z,79.80
2019-02-21T19:13:29.711Z,79.90
2019-02-21T19:31:53.872Z,80.90
2019-02-21T19:34:42.628Z,81.00
2019-02-21T19:37:24.214Z,80.90
2019-02-21T19:42:32.802Z,81.00
2019-02-21T19:45:13.921Z,81.00
2019-02-21T19:47:55.040Z,80.90
2019-02-21T19:50:36.165Z,80.80
2019-02-21T19:53:15.927Z,80.90
2019-02-21T19:55:58.324Z,80.40
2019-02-21T19:58:39.913Z,80.50
2019-02-21T20:51:28.125Z,78.50
2019-02-21T20:54:16.861Z,78.40
2019-02-21T20:56:56.823Z,78.00
2019-02-21T20:59:45.661Z,77.90
2019-02-21T21:02:27.031Z,77.80
2019-02-21T21:15:32.021Z,77.50
2019-02-21T21:18:01.937Z,77.30
2019-02-21T21:20:50.777Z,77.20
2019-02-21T21:23:32.305Z,76.80
2019-02-21T22:13:40.199Z,74.30
2019-02-21T22:16:29.262Z,74.50
2019-02-21T23:25:11.087Z,73.10
